createdAt,value
2023-01-15T00:00:00.441Z,76.3
2023-01-15T00:05:00.486Z,76.7
2023-01-15T00:10:00.461Z,77.0
2023-01-15T00:15:00.461Z,76.9
2023-01-15T00:20:00.474Z,77.3
2023-01-15T00:25:00.437Z,77.0
2023-01-15T00:30:00.490Z,77.5
2023-01-15T00:35:00.448Z,77.2
2023-01-15T00:40:00.489Z,77.0
2023-01-15T00:45:00.489Z,76.8
2023-01-15T00:50:00.468Z,77.1
2023-01-15T00:55:00.452Z,76.4
2023-01-15T01:00:00.714Z,77.0
2023-01-15T01:05:00.488Z,76.7
2023-01-15T01:10:00.451Z,76.9
2023-01-15T01:15:00.426Z,76.8
2023-01-15T01:20:00.801Z,76.8
2023-01-15T01:25:00.459Z,77.2
2023-01-15T01:30:00.475Z,77.2
2023-01-15T01:35:00.462Z,77.7
2023-01-15T01:40:00.462Z,77.9
2023-01-15T01:45:00.480Z,77.9
2023-01-15T01:50:00.471Z,78.0
2023-01-15T01:55:00.483Z,78.6
2023-01-15T02:00:00.439Z,78.5
2023-01-15T02:05:00.651Z,78.3
2023-01-15T02:10:00.474Z,78.4
2023-01-15T02:15:00.487Z,78.3
2023-01-15T02:20:00.466Z,77.7
2023-01-15T02:25:00.489Z,77.7
2023-01-15T02:30:00.468Z,77.1
2023-01-15T02:35:00.799Z,76.5
2023-01-15T02:40:00.471Z,76.5
2023-01-15T02:45:00.443Z,76.2
2023-01-15T02:50:00.482Z,76.2
2023-01-15T02:55:00.483Z,76.2
2023-01-15T03:00:00.526Z,76.5
2023-01-15T03:05:00.436Z,76.3
2023-01-15T03:10:00.811Z,76.3
2023-01-15T03:15:00.437Z,75.9
2023-01-15T03:20:00.462Z,75.8
2023-01-15T03:25:00.464Z,75.7
2023-01-15T03:30:00.472Z,75.6
2023-01-15T03:35:00.459Z,75.2
2023-01-15T03:40:00.498Z,75.1
2023-01-15T03:45:00.476Z,75.0
2023-01-15T03:50:00.483Z,75.1
2023-01-15T03:55:00.479Z,75.2
2023-01-15T04:00:00.509Z,75.0
2023-01-15T04:05:00.487Z,74.9
2023-01-15T04:10:00.456Z,74.7
2023-01-15T04:15:00.475Z,75.0
2023-01-15T04:20:00.480Z,75.0
2023-01-15T04:25:00.471Z,74.8
2023-01-15T04:30:00.487Z,74.7
2023-01-15T04:35:00.462Z,74.4
2023-01-15T04:40:00.482Z,74.4
2023-01-15T04:45:00.472Z,73.9
2023-01-15T04:50:00.429Z,74.0
2023-01-15T04:55:00.474Z,73.7
2023-01-15T05:00:00.499Z,73.7
2023-01-15T05:05:00.476Z,73.6
2023-01-15T05:10:00.446Z,73.6
2023-01-15T05:15:00.465Z,73.5
2023-01-15T05:20:00.490Z,73.2
2023-01-15T05:25:00.436Z,73.3
2023-01-15T05:30:00.476Z,72.8
2023-01-15T05:35:00.460Z,72.6
2023-01-15T05:40:00.457Z,72.5
2023-01-15T05:45:00.499Z,72.6
2023-01-15T05:50:00.441Z,72.3
2023-01-15T05:55:00.481Z,72.3
2023-01-15T06:00:00.498Z,71.8
2023-01-15T06:05:00.462Z,71.2
2023-01-15T06:10:00.465Z,71.2
2023-01-15T06:15:00.458Z,70.9
2023-01-15T06:20:00.478Z,70.3
2023-01-15T06:25:00.425Z,69.7
2023-01-15T06:30:00.473Z,69.7
2023-01-15T06:35:00.482Z,70.1
2023-01-15T06:40:00.437Z,69.9
2023-01-15T06:45:00.488Z,70.0
2023-01-15T06:50:00.478Z,69.7
2023-01-15T06:55:00.472Z,69.5
2023-01-15T07:00:00.436Z,69.3
2023-01-15T07:05:00.467Z,69.2
2023-01-15T07:10:00.647Z,69.0
2023-01-15T07:15:00.442Z,68.9
2023-01-15T07:20:00.482Z,69.2
2023-01-15T07:25:00.636Z,69.6
2023-01-15T07:30:00.441Z,69.7
2023-01-15T07:35:00.469Z,70.1
2023-01-15T07:40:00.506Z,70.2
2023-01-15T07:45:00.483Z,71.0
2023-01-15T07:50:00.463Z,71.0
2023-01-15T07:55:00.468Z,70.6
2023-01-15T08:00:00.432Z,70.7
2023-01-15T08:05:00.464Z,70.7
2023-01-15T08:10:00.497Z,70.1
2023-01-15T08:15:00.460Z,69.7
2023-01-15T08:20:00.445Z,69.2
2023-01-15T08:25:00.479Z,68.4
2023-01-15T08:30:00.499Z,68.0
2023-01-15T08:35:00.437Z,67.7
2023-01-15T08:40:00.484Z,67.5
2023-01-15T08:45:00.475Z,67.8
2023-01-15T08:50:00.470Z,67.8
2023-01-15T08:55:00.464Z,67.7
2023-01-15T09:00:00.518Z,67.7
2023-01-15T09:05:00.593Z,68.0
2023-01-15T09:10:00.461Z,67.7
2023-01-15T09:15:02.829Z,67.4
2023-01-15T09:20:00.548Z,67.6
2023-01-15T09:25:00.476Z,67.4
2023-01-15T09:30:00.481Z,66.0
2023-01-15T09:35:00.476Z,64.1
2023-01-15T09:40:00.467Z,63.3
2023-01-15T09:45:00.475Z,62.0
2023-01-15T09:50:00.444Z,60.5
2023-01-15T09:55:00.479Z,58.9
2023-01-15T10:00:00.471Z,57.8
2023-01-15T10:05:00.482Z,56.9
2023-01-15T10:10:00.478Z,56.7
2023-01-15T10:15:00.470Z,56.4
2023-01-15T10:20:00.448Z,56.9
2023-01-15T10:25:00.493Z,57.5
2023-01-15T10:30:00.454Z,57.5
2023-01-15T10:35:00.528Z,58.4
2023-01-15T10:40:00.431Z,57.1
2023-01-15T10:45:00.482Z,57.0
2023-01-15T10:50:00.459Z,57.2
2023-01-15T10:55:00.478Z,57.6
2023-01-15T11:00:00.474Z,57.1
2023-01-15T11:05:00.466Z,56.4
2023-01-15T11:10:00.468Z,57.0
2023-01-15T11:15:00.479Z,57.1
2023-01-15T11:20:00.480Z,57.3
2023-01-15T11:25:00.467Z,57.9
2023-01-15T11:30:00.467Z,57.7
2023-01-15T11:35:00.478Z,60.6
2023-01-15T11:40:00.469Z,62.2
2023-01-15T11:45:00.646Z,61.9
2023-01-15T11:50:00.432Z,64.5
2023-01-15T11:55:00.789Z,67.8
2023-01-15T12:00:00.454Z,69.2
2023-01-15T12:05:00.483Z,70.7
2023-01-15T12:10:00.472Z,68.8
2023-01-15T12:15:00.506Z,65.4
2023-01-15T12:20:00.434Z,64.9
2023-01-15T12:25:00.488Z,65.0
2023-01-15T12:30:00.477Z,64.3
2023-01-15T12:35:00.508Z,65.2
2023-01-15T12:40:00.452Z,65.9
2023-01-15T12:45:00.508Z,67.2
2023-01-15T12:50:00.431Z,67.7
2023-01-15T12:55:00.453Z,67.2
2023-01-15T13:00:00.501Z,67.2
2023-01-15T13:05:00.473Z,66.3
2023-01-15T13:10:00.476Z,66.0
2023-01-15T13:20:00.416Z,65.7
2023-01-15T13:25:00.349Z,65.2
2023-01-15T13:30:00.381Z,64.9
2023-01-15T13:35:00.545Z,65.2
2023-01-15T13:40:00.349Z,64.8
2023-01-15T13:45:00.370Z,64.5
2023-01-15T13:50:00.412Z,64.5
2023-01-15T13:55:00.402Z,64.3
2023-01-15T14:00:00.344Z,63.5
2023-01-15T14:05:00.379Z,63.6
2023-01-15T14:10:00.347Z,63.6
2023-01-15T14:15:00.388Z,63.6
2023-01-15T14:20:00.399Z,63.3
2023-01-15T14:25:00.390Z,63.4
2023-01-15T14:30:00.357Z,62.9
2023-01-15T14:35:00.406Z,62.8
2023-01-15T14:40:00.370Z,62.4
2023-01-15T14:45:00.398Z,62.5
2023-01-15T14:50:00.385Z,62.0
2023-01-15T14:55:00.386Z,62.4
2023-01-15T15:00:00.464Z,62.1
2023-01-15T15:05:00.448Z,62.6
2023-01-15T15:10:00.392Z,63.6
2023-01-15T15:15:00.406Z,65.0
2023-01-15T15:20:00.348Z,66.2
2023-01-15T15:25:00.400Z,66.8
2023-01-15T15:30:00.911Z,68.4
2023-01-15T15:35:00.533Z,69.4
2023-01-15T15:40:01.032Z,73.7
2023-01-15T15:45:02.007Z,76.5
2023-01-15T15:50:01.279Z,77.2
2023-01-15T15:55:01.454Z,79.0
2023-01-15T16:00:02.546Z,78.2
2023-01-15T16:05:00.370Z,77.3
2023-01-15T16:10:00.733Z,76.7
2023-01-15T16:15:01.609Z,77.8
2023-01-15T16:20:08.322Z,78.8
2023-01-15T16:25:02.057Z,78.9
2023-01-15T16:30:04.590Z,79.6
2023-01-15T16:35:01.991Z,79.5
2023-01-15T16:40:00.646Z,79.1
2023-01-15T16:45:00.789Z,79.2
2023-01-15T16:50:02.535Z,78.8
2023-01-15T16:55:00.922Z,78.4
2023-01-15T17:00:05.574Z,78.6
2023-01-15T17:05:02.070Z,78.3
2023-01-15T17:10:08.271Z,78.8
2023-01-15T17:15:11.478Z,78.8
2023-01-15T17:20:02.439Z,78.5
2023-01-15T17:25:07.825Z,78.9
2023-01-15T17:30:02.452Z,78.3
2023-01-15T17:35:02.523Z,78.2
2023-01-15T17:40:01.367Z,78.2
2023-01-15T17:45:01.592Z,78.1
2023-01-15T17:50:03.402Z,78.0
2023-01-15T17:55:01.100Z,78.3
2023-01-15T18:00:03.100Z,78.0
2023-01-15T18:05:03.581Z,78.1
2023-01-15T18:10:05.036Z,78.3
2023-01-15T18:15:01.343Z,78.2
2023-01-15T18:20:03.903Z,78.5
2023-01-15T18:25:03.796Z,78.7
2023-01-15T18:30:00.707Z,78.0
2023-01-15T18:35:02.733Z,77.6
2023-01-15T18:40:00.362Z,77.6
2023-01-15T18:45:03.699Z,77.8
2023-01-15T18:50:02.207Z,77.2
2023-01-15T18:55:04.857Z,77.4
2023-01-15T19:00:04.429Z,77.0
2023-01-15T19:05:02.403Z,77.1
2023-01-15T19:10:03.444Z,76.9
2023-01-15T19:15:07.318Z,77.2
2023-01-15T19:20:00.583Z,77.3
2023-01-15T19:25:01.614Z,76.5
2023-01-15T19:30:01.768Z,76.8
2023-01-15T19:35:01.216Z,76.7
2023-01-15T19:40:02.469Z,76.6
2023-01-15T19:45:00.905Z,76.9
2023-01-15T19:50:10.089Z,76.8
2023-01-15T19:55:05.174Z,77.3
2023-01-15T20:10:02.430Z,77.5
2023-01-15T20:15:01.591Z,77.3
2023-01-15T20:20:01.764Z,77.4
2023-01-15T20:25:01.817Z,77.1
2023-01-15T20:30:03.395Z,76.9
2023-01-15T20:35:05.215Z,76.6
2023-01-15T21:05:04.783Z,77.0
2023-01-15T21:10:05.241Z,76.9
2023-01-15T21:15:07.252Z,77.0
2023-01-15T21:20:06.697Z,76.9
2023-01-15T21:25:03.863Z,76.6
2023-01-15T21:30:04.737Z,76.9
2023-01-15T21:35:03.253Z,77.1
2023-01-15T21:40:01.297Z,76.3
2023-01-15T21:45:05.334Z,76.6
2023-01-15T21:50:08.866Z,76.9
2023-01-15T21:55:01.303Z,77.0
2023-01-15T22:00:05.942Z,77.1
2023-01-15T22:05:08.115Z,77.3
2023-01-15T22:15:02.901Z,76.9
2023-01-15T22:20:11.144Z,77.2
2023-01-15T22:25:01.549Z,76.7
2023-01-15T22:30:00.917Z,76.9
2023-01-15T22:35:03.147Z,76.9
2023-01-15T22:40:03.353Z,76.7
2023-01-15T22:45:01.165Z,77.1
2023-01-15T22:55:04.384Z,77.1
2023-01-15T23:00:04.081Z,76.7
2023-01-15T23:05:01.119Z,76.9
2023-01-15T23:10:05.850Z,76.2
2023-01-15T23:15:00.936Z,76.4
2023-01-15T23:25:01.001Z,76.2
2023-01-15T23:30:02.758Z,76.5
2023-01-15T23:35:02.685Z,76.9
2023-01-15T23:40:04.849Z,76.7
2023-01-15T23:45:03.709Z,77.1
2023-01-15T23:50:01.303Z,77.1
2023-01-15T23:55:00.923Z,77.1
